Time;durP1;ratioP1;P1;durP2;ratioP2;P2;SDS_P1;SDS_P2;PMS_P1;PMS_P2;Temp;Humidity;BMP_temperature;BMP_pressure;BME280_temperature;BME280_humidity;BME280_pressure;Samples;Min_cycle;Max_cycle;Signal;HPM_P1;HPM_P2
2022/08/20 00:01:40;;;;;;;11.73;7.68;;;19.90;99.90;;;;;;5054253;28;20048;-77
2022/08/20 00:04:06;;;;;;;11.70;7.97;;;20.00;99.90;;;;;;5066509;28;20498;-76
2022/08/20 00:06:33;;;;;;;8.23;7.22;;;19.90;99.90;;;;;;5069279;28;20120;-77
2022/08/20 00:08:58;;;;;;;11.30;8.32;;;20.10;99.90;;;;;;5070273;28;20522;-76
2022/08/20 00:11:26;;;;;;;13.55;7.70;;;19.70;99.90;;;;;;5053833;28;20040;-78
2022/08/20 00:13:58;;;;;;;12.25;7.30;;;19.80;99.90;;;;;;5053820;28;20390;-76
2022/08/20 00:16:31;;;;;;;10.35;6.65;;;19.60;99.90;;;;;;5034990;28;20063;-74
2022/08/20 00:19:00;;;;;;;15.32;7.38;;;19.80;99.90;;;;;;5049815;28;20044;-77
2022/08/20 00:21:26;;;;;;;13.68;6.93;;;19.60;99.90;;;;;;5049820;28;20120;-79
2022/08/20 00:23:54;;;;;;;10.48;7.13;;;19.70;99.90;;;;;;5034704;28;20190;-79
2022/08/20 00:26:21;;;;;;;14.50;7.18;;;19.70;99.90;;;;;;5053852;28;20251;-76
2022/08/20 00:28:47;;;;;;;11.05;7.68;;;19.40;99.90;;;;;;5050348;28;20037;-76
2022/08/20 00:31:17;;;;;;;15.77;7.20;;;19.70;99.90;;;;;;5050016;28;20052;-77
2022/08/20 00:33:43;;;;;;;12.32;6.55;;;19.60;99.90;;;;;;5050533;28;20040;-75
2022/08/20 00:36:11;;;;;;;9.15;6.50;;;19.50;99.90;;;;;;5060188;28;20131;-76
2022/08/20 00:38:41;;;;;;;10.73;6.43;;;19.60;99.90;;;;;;5069302;28;20500;-79
2022/08/20 00:41:23;;;;;;;11.57;6.60;;;19.70;99.90;;;;;;5053492;28;20045;-75
2022/08/20 00:44:04;;;;;;;12.07;6.55;;;19.50;99.90;;;;;;5070054;28;20060;-75
2022/08/20 00:46:30;;;;;;;14.57;7.25;;;19.50;99.90;;;;;;5049073;28;20043;-76
2022/08/20 00:48:57;;;;;;;12.23;6.68;;;19.60;99.90;;;;;;5069320;28;20154;-74
2022/08/20 00:51:29;;;;;;;11.60;7.13;;;19.70;99.90;;;;;;5070062;28;20036;-78
2022/08/20 00:54:01;;;;;;;15.18;7.00;;;19.70;99.90;;;;;;5053350;28;20087;-77
2022/08/20 00:56:27;;;;;;;11.50;6.65;;;19.60;99.90;;;;;;5069618;28;20063;-76
2022/08/20 00:58:53;;;;;;;12.40;6.72;;;19.60;99.90;;;;;;5053823;28;20044;-74
2022/08/20 01:01:21;;;;;;;13.10;6.28;;;19.60;99.90;;;;;;5051437;28;20037;-78
2022/08/20 01:03:47;;;;;;;12.35;6.60;;;19.50;99.90;;;;;;5053552;28;20119;-74
2022/08/20 01:06:13;;;;;;;11.38;6.63;;;19.60;99.90;;;;;;5052681;28;20045;-80
2022/08/20 01:08:40;;;;;;;11.15;6.45;;;19.70;99.90;;;;;;5053334;28;20389;-76
2022/08/20 01:11:14;;;;;;;12.38;5.72;;;19.40;99.90;;;;;;5070080;28;20451;-74
2022/08/20 01:13:41;;;;;;;11.57;5.78;;;19.70;99.90;;;;;;5054615;28;20044;-77
2022/08/20 01:16:19;;;;;;;11.02;5.93;;;19.50;99.90;;;;;;5068149;28;20041;-79
2022/08/20 01:18:47;;;;;;;13.95;6.20;;;19.40;99.90;;;;;;5047572;28;20400;-77
2022/08/20 01:21:13;;;;;;;9.52;5.55;;;19.70;99.90;;;;;;5069411;28;20044;-79
2022/08/20 01:23:55;;;;;;;15.43;6.13;;;19.30;99.90;;;;;;5053325;28;20067;-77
2022/08/20 01:26:26;;;;;;;12.38;5.95;;;19.60;99.90;;;;;;5069384;28;20048;-76
2022/08/20 01:29:00;;;;;;;8.13;5.80;;;19.40;99.90;;;;;;5069860;28;20037;-79
2022/08/20 01:31:30;;;;;;;10.50;6.23;;;19.60;99.90;;;;;;5049146;28;20043;-76
2022/08/20 01:33:58;;;;;;;12.07;5.78;;;19.50;99.90;;;;;;5073328;28;20036;-78
2022/08/20 01:36:31;;;;;;;14.43;6.40;;;19.20;99.90;;;;;;5056720;28;20373;-76
2022/08/20 01:38:58;;;;;;;14.50;6.35;;;19.30;99.90;;;;;;5056746;28;20051;-78
2022/08/20 01:42:17;;;;;;;13.13;6.43;;;19.30;99.90;;;;;;5056586;28;20078;-77
2022/08/20 01:44:45;;;;;;;10.13;6.05;;;19.00;99.90;;;;;;5069454;28;20060;-79
2022/08/20 01:47:22;;;;;;;9.85;5.40;;;18.90;99.90;;;;;;5044353;28;20055;-80
2022/08/20 01:49:52;;;;;;;11.02;5.65;;;19.10;99.90;;;;;;5036393;28;20044;-77
2022/08/20 01:52:56;;;;;;;7.90;5.95;;;19.10;99.90;;;;;;5052976;28;20481;-80
2022/08/20 01:55:23;;;;;;;8.90;5.90;;;18.80;99.90;;;;;;5065774;28;20044;-77
2022/08/20 01:57:48;;;;;;;10.10;6.68;;;18.70;99.90;;;;;;5072764;28;20048;-77
2022/08/20 02:00:18;;;;;;;14.27;7.05;;;18.90;99.90;;;;;;5056206;28;20048;-78
2022/08/20 02:02:43;;;;;;;10.82;6.22;;;18.70;99.90;;;;;;5067294;28;20119;-79
2022/08/20 02:05:10;;;;;;;10.98;6.25;;;18.60;99.90;;;;;;5055475;28;20414;-77
2022/08/20 02:07:36;;;;;;;8.82;5.82;;;18.70;99.90;;;;;;5072641;28;20045;-77
2022/08/20 02:10:05;;;;;;;8.30;6.47;;;18.90;99.90;;;;;;5039332;28;20079;-77
2022/08/20 02:12:31;;;;;;;10.18;6.38;;;18.80;99.90;;;;;;5056174;28;20036;-78
2022/08/20 02:14:57;;;;;;;10.07;6.18;;;18.60;99.90;;;;;;5055705;28;20086;-77
2022/08/20 02:17:25;;;;;;;10.52;6.60;;;18.70;99.90;;;;;;5031462;28;20036;-77
2022/08/20 02:19:53;;;;;;;11.82;7.30;;;18.80;99.90;;;;;;5052651;28;20052;-80
2022/08/20 02:22:48;;;;;;;8.80;6.75;;;18.80;99.90;;;;;;5051750;28;20147;-77
2022/08/20 02:25:16;;;;;;;13.35;7.28;;;18.60;99.90;;;;;;5055368;28;20421;-78
2022/08/20 02:27:47;;;;;;;9.27;6.63;;;18.50;99.90;;;;;;5055788;28;20123;-76
2022/08/20 02:30:18;;;;;;;10.30;6.93;;;18.60;99.90;;;;;;5072590;28;20044;-75
2022/08/20 02:32:44;;;;;;;9.15;6.85;;;18.40;99.90;;;;;;5071299;28;20036;-78
2022/08/20 02:35:12;;;;;;;15.85;7.00;;;18.70;99.90;;;;;;5055924;28;20468;-79
2022/08/20 02:37:39;;;;;;;10.63;6.78;;;18.60;99.90;;;;;;5055817;28;20403;-74
2022/08/20 02:40:07;;;;;;;12.55;7.28;;;18.70;99.90;;;;;;5056015;28;20040;-77
2022/08/20 02:42:34;;;;;;;11.73;6.65;;;18.30;99.90;;;;;;5071887;28;20048;-80
2022/08/20 02:45:00;;;;;;;11.45;6.63;;;18.50;99.90;;;;;;5055857;28;20349;-78
2022/08/20 02:47:26;;;;;;;9.85;6.10;;;18.40;99.90;;;;;;5032621;28;20060;-76
2022/08/20 02:49:53;;;;;;;10.25;6.22;;;18.30;99.90;;;;;;5035476;28;20041;-76
2022/08/20 02:52:20;;;;;;;10.95;6.75;;;18.50;99.90;;;;;;5051873;28;20029;-80
2022/08/20 02:54:47;;;;;;;9.32;5.97;;;18.30;99.90;;;;;;5035694;28;20044;-78
2022/08/20 02:57:19;;;;;;;11.15;6.60;;;18.20;99.90;;;;;;5026349;28;20151;-79
2022/08/20 02:59:45;;;;;;;11.07;5.78;;;18.20;99.90;;;;;;5039572;28;20429;-80
2022/08/20 03:02:11;;;;;;;11.27;6.30;;;18.20;99.90;;;;;;5066932;28;20044;-80
2022/08/20 03:04:37;;;;;;;11.52;6.78;;;18.30;99.90;;;;;;5055159;28;20052;-78
2022/08/20 03:07:04;;;;;;;13.70;6.97;;;18.30;99.90;;;;;;5071535;28;20047;-81
2022/08/20 03:09:30;;;;;;;10.70;6.18;;;18.30;99.90;;;;;;5054857;28;20044;-81
2022/08/20 03:11:56;;;;;;;13.70;6.45;;;18.00;99.90;;;;;;5038444;28;20036;-77
2022/08/20 03:14:22;;;;;;;7.97;5.82;;;18.20;99.90;;;;;;5071261;28;20040;-77
2022/08/20 03:16:48;;;;;;;11.30;6.55;;;17.80;99.90;;;;;;5053345;28;20055;-75
2022/08/20 03:19:14;;;;;;;12.20;6.05;;;17.80;99.90;;;;;;5049434;28;20044;-80
2022/08/20 03:21:40;;;;;;;11.93;5.90;;;17.80;99.90;;;;;;5054531;28;20052;-78
2022/08/20 03:24:06;;;;;;;8.43;5.95;;;17.70;99.90;;;;;;5054447;28;20049;-78
2022/08/20 03:26:31;;;;;;;11.18;5.68;;;17.50;99.90;;;;;;5071273;28;20123;-78
2022/08/20 03:28:57;;;;;;;9.23;5.68;;;17.60;99.90;;;;;;5054254;28;20461;-78
2022/08/20 03:31:23;;;;;;;10.68;5.57;;;17.60;99.90;;;;;;5054259;28;20045;-76
2022/08/20 03:33:49;;;;;;;8.43;5.43;;;17.30;99.90;;;;;;5038388;28;20040;-79
2022/08/20 03:36:14;;;;;;;10.75;5.70;;;17.30;99.90;;;;;;5051212;28;20049;-78
2022/08/20 03:38:40;;;;;;;10.40;5.15;;;17.40;99.90;;;;;;5062160;28;20121;-78
2022/08/20 03:41:06;;;;;;;7.15;4.85;;;17.40;99.90;;;;;;5054288;28;20409;-77
2022/08/20 03:43:32;;;;;;;9.32;5.07;;;17.20;99.90;;;;;;5070853;28;20047;-80
2022/08/20 03:45:58;;;;;;;11.45;5.22;;;17.20;99.90;;;;;;5054245;28;20048;-79
2022/08/20 03:48:24;;;;;;;13.10;4.97;;;17.20;99.90;;;;;;5032713;28;20393;-79
2022/08/20 03:50:50;;;;;;;9.48;4.53;;;17.30;99.90;;;;;;5054699;28;20427;-76
2022/08/20 03:53:17;;;;;;;11.65;4.60;;;17.20;99.90;;;;;;5070795;28;20068;-81
2022/08/20 03:55:45;;;;;;;9.95;4.82;;;17.10;99.90;;;;;;5053862;28;20123;-77
2022/08/20 03:58:12;;;;;;;11.57;4.30;;;17.30;99.90;;;;;;5053646;28;20036;-79
2022/08/20 04:00:42;;;;;;;9.05;4.32;;;17.10;99.90;;;;;;5070343;28;20481;-77
2022/08/20 04:03:09;;;;;;;7.90;4.45;;;17.20;99.90;;;;;;5061393;28;20048;-77
2022/08/20 04:05:39;;;;;;;7.40;3.65;;;17.20;99.90;;;;;;5034234;28;20033;-77
2022/08/20 04:08:25;;;;;;;10.25;4.65;;;17.10;99.90;;;;;;5082390;28;20049;-77
2022/08/20 04:10:52;;;;;;;13.57;4.45;;;17.10;99.90;;;;;;5017790;28;20063;-78
2022/08/20 04:13:20;;;;;;;14.13;4.43;;;17.30;99.90;;;;;;5050334;28;20170;-79
2022/08/20 04:15:47;;;;;;;8.88;4.50;;;17.20;99.90;;;;;;5050673;28;20045;-76
2022/08/20 04:18:14;;;;;;;9.80;4.90;;;17.10;99.90;;;;;;5050639;28;20049;-76
2022/08/20 04:20:42;;;;;;;10.98;4.68;;;17.10;99.90;;;;;;5049969;28;20037;-77
2022/08/20 04:23:08;;;;;;;12.27;3.83;;;17.10;99.90;;;;;;5049661;28;20056;-79
2022/08/20 04:25:38;;;;;;;8.50;4.55;;;17.00;99.90;;;;;;5050188;28;20055;-77
2022/08/20 04:28:06;;;;;;;8.45;4.47;;;17.20;99.90;;;;;;5032314;28;20504;-80
2022/08/20 04:30:32;;;;;;;11.88;3.90;;;17.30;99.90;;;;;;5044302;28;20044;-77
2022/08/20 04:32:58;;;;;;;13.48;5.25;;;17.20;99.90;;;;;;5036461;28;20143;-79
2022/08/20 04:35:25;;;;;;;10.90;3.60;;;17.30;99.90;;;;;;5050267;28;20198;-75
2022/08/20 04:38:00;;;;;;;10.13;3.30;;;17.10;99.90;;;;;;5070106;28;20431;-76
2022/08/20 04:43:11;;;;;;;9.75;3.83;;;17.10;99.90;;;;;;5070098;28;20047;-74
2022/08/20 04:45:36;;;;;;;10.15;3.38;;;17.20;99.90;;;;;;5053041;28;20048;-79
2022/08/20 04:48:05;;;;;;;12.05;4.05;;;17.00;99.90;;;;;;5052819;28;20128;-78
2022/08/20 04:50:36;;;;;;;8.60;3.50;;;17.00;99.90;;;;;;5062536;28;20045;-78
2022/08/20 04:53:06;;;;;;;9.38;3.10;;;17.00;99.90;;;;;;5066807;28;20669;-80
2022/08/20 04:55:33;;;;;;;11.18;3.25;;;17.00;99.90;;;;;;5066598;28;20033;-79
2022/08/20 04:58:03;;;;;;;8.07;3.05;;;17.00;99.90;;;;;;5066554;28;20131;-78
2022/08/20 05:00:30;;;;;;;8.20;3.00;;;17.00;99.90;;;;;;5066092;28;20041;-77
2022/08/20 05:02:56;;;;;;;8.48;2.40;;;17.00;99.90;;;;;;5060499;28;20110;-79
2022/08/20 05:05:22;;;;;;;7.47;2.90;;;16.90;99.90;;;;;;5038097;28;20404;-77
2022/08/20 05:07:47;;;;;;;6.03;2.90;;;17.00;99.90;;;;;;5040523;28;20496;-80
2022/08/20 05:10:16;;;;;;;7.28;2.90;;;16.90;99.90;;;;;;5057254;28;20032;-77
2022/08/20 05:12:42;;;;;;;6.97;2.90;;;16.90;99.90;;;;;;5056546;28;20473;-78
2022/08/20 05:15:10;;;;;;;8.98;2.88;;;17.00;99.90;;;;;;5057067;28;20037;-77
2022/08/20 05:17:41;;;;;;;8.30;2.80;;;16.90;99.90;;;;;;5046649;28;20045;-78
2022/08/20 05:20:10;;;;;;;11.48;3.38;;;16.90;99.90;;;;;;5070144;28;20037;-77
2022/08/20 05:22:36;;;;;;;11.23;3.03;;;16.90;99.90;;;;;;5068109;28;20083;-76
2022/08/20 05:25:02;;;;;;;5.95;2.92;;;17.10;99.90;;;;;;5056491;28;20157;-77
2022/08/20 05:27:28;;;;;;;7.72;2.80;;;17.00;99.90;;;;;;5073242;28;20040;-76
2022/08/20 05:30:06;;;;;;;7.50;2.50;;;16.90;99.90;;;;;;5056683;28;20099;-78
2022/08/20 05:32:34;;;;;;;6.13;2.83;;;16.80;99.90;;;;;;5053080;28;20070;-79
2022/08/20 05:35:04;;;;;;;11.82;3.10;;;17.00;99.90;;;;;;5071709;28;20049;-79
2022/08/20 05:37:30;;;;;;;6.68;2.50;;;16.80;99.90;;;;;;5040086;28;20370;-76
2022/08/20 05:39:56;;;;;;;9.73;3.20;;;16.90;99.90;;;;;;5056368;28;20052;-74
2022/08/20 05:42:22;;;;;;;7.22;2.58;;;16.90;99.90;;;;;;5072967;28;20044;-77
2022/08/20 05:44:49;;;;;;;6.97;2.90;;;16.80;99.90;;;;;;5056483;28;20499;-82
2022/08/20 05:47:16;;;;;;;8.80;3.42;;;16.80;99.90;;;;;;5055392;28;20041;-79
2022/08/20 05:49:42;;;;;;;9.43;2.78;;;16.80;99.90;;;;;;5072630;28;20123;-79
2022/08/20 05:52:08;;;;;;;12.13;2.80;;;16.80;99.90;;;;;;5072808;28;20131;-77
2022/08/20 05:54:34;;;;;;;7.05;2.63;;;16.90;99.90;;;;;;5036546;28;20135;-77
2022/08/20 05:56:59;;;;;;;10.30;2.58;;;16.70;99.90;;;;;;5052624;28;20420;-79
2022/08/20 05:59:26;;;;;;;11.35;2.80;;;16.90;99.90;;;;;;5052640;28;20041;-77
2022/08/20 06:01:52;;;;;;;11.73;2.90;;;16.80;99.90;;;;;;5052488;28;20055;-78
2022/08/20 06:04:24;;;;;;;7.90;2.40;;;16.90;99.90;;;;;;5035388;28;20060;-78
2022/08/20 06:06:56;;;;;;;7.40;3.13;;;16.90;99.90;;;;;;5072851;28;20350;-77
2022/08/20 06:09:24;;;;;;;10.38;2.75;;;16.80;99.90;;;;;;5072766;28;20047;-79
2022/08/20 06:11:50;;;;;;;9.45;3.47;;;16.80;99.90;;;;;;5072350;28;20036;-79
2022/08/20 06:14:16;;;;;;;10.40;3.30;;;17.00;99.90;;;;;;5055359;28;20090;-77
2022/08/20 06:16:42;;;;;;;7.65;2.83;;;17.10;99.90;;;;;;5071777;28;20036;-79
2022/08/20 06:19:09;;;;;;;9.18;2.95;;;17.00;99.90;;;;;;5066948;28;20059;-77
2022/08/20 06:21:35;;;;;;;10.77;3.20;;;17.20;99.90;;;;;;5039734;28;20056;-80
2022/08/20 06:24:01;;;;;;;7.55;2.92;;;17.20;99.90;;;;;;5055544;28;20102;-80
2022/08/20 06:26:27;;;;;;;7.85;3.10;;;17.20;99.90;;;;;;5072391;28;20130;-77
2022/08/20 06:28:52;;;;;;;9.27;3.00;;;17.20;99.90;;;;;;5039380;28;20037;-80
2022/08/20 06:31:18;;;;;;;10.95;3.10;;;17.40;99.90;;;;;;5055608;28;20044;-77
2022/08/20 06:33:44;;;;;;;7.95;2.67;;;17.30;99.90;;;;;;5048701;28;20476;-76
2022/08/20 06:36:10;;;;;;;7.95;2.40;;;17.40;99.90;;;;;;5035683;28;20132;-80
2022/08/20 06:38:35;;;;;;;6.47;2.20;;;17.50;99.90;;;;;;5051079;28;20044;-80
2022/08/20 06:41:01;;;;;;;9.25;2.70;;;17.40;99.90;;;;;;5038756;28;20102;-81
2022/08/20 06:43:27;;;;;;;8.68;2.65;;;17.50;99.90;;;;;;5055721;28;20041;-77
2022/08/20 06:45:56;;;;;;;5.72;2.97;;;17.60;99.90;;;;;;5055289;28;20040;-78
2022/08/20 06:48:22;;;;;;;5.68;1.90;;;17.60;99.90;;;;;;5072559;28;20362;-77
2022/08/20 06:50:48;;;;;;;5.93;2.35;;;17.80;99.90;;;;;;5051954;28;20040;-77
2022/08/20 06:53:17;;;;;;;7.72;2.72;;;17.80;99.90;;;;;;5065722;28;20040;-80
2022/08/20 06:55:51;;;;;;;5.00;2.03;;;18.00;99.90;;;;;;5071793;28;20046;-78
2022/08/20 06:58:17;;;;;;;7.72;2.00;;;18.10;99.90;;;;;;5052065;28;20465;-80
2022/08/20 07:00:44;;;;;;;5.88;1.67;;;18.00;99.90;;;;;;5035418;28;20049;-81
2022/08/20 07:03:11;;;;;;;7.28;2.17;;;18.10;99.90;;;;;;5053318;28;20047;-78
2022/08/20 07:05:42;;;;;;;5.25;1.77;;;18.20;99.90;;;;;;5071513;28;20048;-78
2022/08/20 07:08:10;;;;;;;4.82;1.60;;;18.20;99.90;;;;;;5055377;28;20082;-77
2022/08/20 07:10:36;;;;;;;9.65;1.65;;;18.20;99.90;;;;;;5072077;28;20127;-79
2022/08/20 07:13:02;;;;;;;4.65;1.70;;;18.20;99.90;;;;;;5045797;28;20167;-79
2022/08/20 07:15:28;;;;;;;5.50;1.70;;;18.20;99.90;;;;;;5051685;28;20130;-78
2022/08/20 07:17:57;;;;;;;3.85;1.48;;;18.30;99.90;;;;;;5051473;28;20473;-76
2022/08/20 07:20:24;;;;;;;2.67;1.50;;;18.40;99.90;;;;;;5034323;28;20051;-79
2022/08/20 07:22:51;;;;;;;8.57;2.13;;;18.40;99.90;;;;;;5072379;28;20147;-80
2022/08/20 07:25:18;;;;;;;5.47;1.85;;;18.50;99.90;;;;;;5051633;28;20040;-78
2022/08/20 07:27:45;;;;;;;4.45;1.33;;;18.60;99.90;;;;;;5067523;28;20033;-77
2022/08/20 07:33:00;;;;;;;4.22;1.42;;;18.50;99.90;;;;;;5059994;28;20064;-80
2022/08/20 07:35:26;;;;;;;4.68;1.38;;;18.60;99.90;;;;;;5038147;28;20142;-81
2022/08/20 07:37:55;;;;;;;5.07;1.30;;;18.80;99.90;;;;;;5054307;28;20412;-79
2022/08/20 07:40:26;;;;;;;7.65;1.60;;;18.70;99.90;;;;;;5071535;28;20642;-78
2022/08/20 07:42:53;;;;;;;4.18;1.30;;;18.80;99.90;;;;;;5054364;28;20043;-80
2022/08/20 07:45:19;;;;;;;4.53;1.35;;;18.80;99.90;;;;;;5050589;28;20128;-82
2022/08/20 07:47:46;;;;;;;3.33;1.15;;;18.80;99.90;;;;;;5054659;28;20124;-81
2022/08/20 07:50:17;;;;;;;4.03;1.45;;;18.90;99.90;;;;;;5071783;28;20044;-80
2022/08/20 07:52:44;;;;;;;3.83;1.40;;;19.00;99.90;;;;;;5054812;28;20052;-82
2022/08/20 07:55:11;;;;;;;7.72;1.63;;;19.00;99.90;;;;;;5035542;28;20037;-82
2022/08/20 07:57:38;;;;;;;3.63;1.33;;;18.70;99.90;;;;;;5056260;28;20123;-81
2022/08/20 08:00:07;;;;;;;3.03;1.10;;;18.60;99.90;;;;;;5055119;28;20048;-80
2022/08/20 08:02:34;;;;;;;4.07;1.40;;;18.80;99.90;;;;;;5055464;28;20044;-81
2022/08/20 08:05:00;;;;;;;2.90;1.08;;;18.90;99.90;;;;;;5067146;28;20427;-80
2022/08/20 08:07:27;;;;;;;3.08;1.45;;;19.10;99.90;;;;;;5052398;28;20067;-79
2022/08/20 08:09:54;;;;;;;5.65;1.40;;;19.20;99.90;;;;;;5037114;28;20124;-81
2022/08/20 08:12:22;;;;;;;7.32;1.70;;;19.20;99.90;;;;;;5051861;28;20047;-79
2022/08/20 08:14:48;;;;;;;5.03;1.38;;;19.30;99.90;;;;;;5062680;28;20044;-80
2022/08/20 08:17:15;;;;;;;6.25;1.45;;;19.40;99.90;;;;;;5036725;28;20397;-80
2022/08/20 08:19:49;;;;;;;7.10;1.42;;;19.50;99.90;;;;;;5068163;28;20041;-82
2022/08/20 08:22:17;;;;;;;3.67;1.40;;;19.50;99.90;;;;;;5051117;28;20080;-81
2022/08/20 08:24:45;;;;;;;7.60;1.10;;;19.60;99.90;;;;;;5054189;28;20045;-78
2022/08/20 08:27:17;;;;;;;3.55;1.38;;;19.60;99.90;;;;;;5037243;28;20037;-80
2022/08/20 08:29:43;;;;;;;7.82;1.30;;;19.60;99.90;;;;;;5051310;28;20044;-81
2022/08/20 08:32:09;;;;;;;4.07;1.30;;;19.60;99.90;;;;;;5054313;28;20384;-82
2022/08/20 08:34:35;;;;;;;3.78;1.40;;;19.70;99.90;;;;;;5037768;28;20037;-81
2022/08/20 08:37:02;;;;;;;3.83;1.20;;;19.70;99.90;;;;;;5064920;28;20036;-83
2022/08/20 08:39:30;;;;;;;3.53;1.13;;;19.80;99.90;;;;;;5033712;28;20045;-82
2022/08/20 08:41:57;;;;;;;4.70;1.45;;;19.80;99.90;;;;;;5060990;28;20079;-82
2022/08/20 08:44:41;;;;;;;4.45;1.30;;;19.90;99.90;;;;;;5038206;28;20074;-80
2022/08/20 08:47:17;;;;;;;4.93;1.47;;;20.00;99.90;;;;;;5042864;28;20057;-80
2022/08/20 08:49:45;;;;;;;6.93;1.20;;;20.00;99.90;;;;;;5034783;28;20358;-83
2022/08/20 08:52:21;;;;;;;9.35;2.00;;;20.00;99.90;;;;;;5060138;28;20033;-80
2022/08/20 08:54:51;;;;;;;5.45;1.58;;;20.10;99.90;;;;;;5038271;28;20087;-81
2022/08/20 08:57:18;;;;;;;6.18;1.52;;;20.30;99.90;;;;;;5044965;28;20043;-83
2022/08/20 08:59:47;;;;;;;3.33;1.27;;;20.40;99.90;;;;;;5018261;28;20044;-82
2022/08/20 09:02:21;;;;;;;7.43;1.55;;;20.40;99.90;;;;;;5024979;28;20119;-83
2022/08/20 09:04:50;;;;;;;4.32;1.20;;;20.30;99.90;;;;;;5054223;28;20053;-81
2022/08/20 09:07:17;;;;;;;3.42;1.30;;;20.40;99.90;;;;;;5070015;28;20048;-81
2022/08/20 09:09:45;;;;;;;3.85;1.20;;;20.60;99.90;;;;;;5054530;28;20040;-82
2022/08/20 09:12:23;;;;;;;6.93;1.33;;;20.70;99.90;;;;;;5071226;28;20441;-81
2022/08/20 09:14:49;;;;;;;3.50;1.20;;;20.50;99.90;;;;;;5054408;28;20047;-82
2022/08/20 09:17:18;;;;;;;7.03;1.50;;;20.50;99.90;;;;;;5050266;28;20041;-83
2022/08/20 09:19:44;;;;;;;3.97;1.33;;;20.40;99.90;;;;;;5034820;28;20045;-82
2022/08/20 09:22:14;;;;;;;3.85;1.10;;;20.50;99.90;;;;;;5018125;28;20096;-83
2022/08/20 09:24:41;;;;;;;4.45;1.10;;;20.60;99.90;;;;;;5050600;28;20045;-82
2022/08/20 09:27:07;;;;;;;2.95;1.15;;;20.90;99.90;;;;;;5033694;28;20481;-81
2022/08/20 09:29:34;;;;;;;3.72;1.30;;;21.30;99.90;;;;;;5033545;28;20032;-81
2022/08/20 09:32:09;;;;;;;6.03;1.50;;;21.50;99.90;;;;;;5054359;28;20048;-81
2022/08/20 09:34:40;;;;;;;3.85;1.40;;;21.70;99.90;;;;;;5053724;28;20036;-82
2022/08/20 09:37:07;;;;;;;3.42;1.40;;;21.70;99.90;;;;;;5053880;28;20393;-84
2022/08/20 09:39:33;;;;;;;5.13;1.60;;;21.70;99.90;;;;;;5053282;28;20049;-85
2022/08/20 09:42:15;;;;;;;5.13;1.45;;;21.80;99.90;;;;;;5017498;28;20064;-83
2022/08/20 09:44:42;;;;;;;3.72;1.35;;;22.40;99.90;;;;;;5034889;28;20393;-81
2022/08/20 09:47:09;;;;;;;5.35;1.20;;;22.70;99.90;;;;;;5034204;28;20130;-82
2022/08/20 09:49:39;;;;;;;11.45;2.35;;;22.80;99.90;;;;;;5048381;28;20041;-80
2022/08/20 09:52:08;;;;;;;3.50;1.30;;;22.80;99.90;;;;;;5055155;28;20040;-82
2022/08/20 09:54:35;;;;;;;4.00;1.20;;;22.00;99.90;;;;;;5057703;28;20043;-82
2022/08/20 09:57:04;;;;;;;5.97;2.65;;;21.50;99.90;;;;;;5074583;28;20086;-82
2022/08/20 09:59:32;;;;;;;3.50;1.17;;;21.40;99.90;;;;;;5053240;28;20097;-83
2022/08/20 10:01:58;;;;;;;4.55;1.92;;;21.50;99.90;;;;;;5056302;28;20048;-82
2022/08/20 10:04:24;;;;;;;2.45;1.10;;;22.40;99.90;;;;;;5056483;28;20047;-82
2022/08/20 10:06:50;;;;;;;3.65;1.42;;;23.00;99.90;;;;;;5056249;28;20040;-81
2022/08/20 10:09:15;;;;;;;3.03;1.20;;;23.20;99.90;;;;;;5056300;28;20043;-82
2022/08/20 10:11:41;;;;;;;2.72;1.17;;;23.60;99.90;;;;;;5041403;28;20054;-82
2022/08/20 10:14:10;;;;;;;6.78;1.60;;;23.50;99.90;;;;;;5057343;28;20040;-82
2022/08/20 10:16:36;;;;;;;4.47;1.30;;;23.10;99.90;;;;;;5035738;28;20037;-82
2022/08/20 10:19:03;;;;;;;4.38;1.27;;;22.90;99.90;;;;;;5057276;28;20044;-83
2022/08/20 10:21:30;;;;;;;5.25;1.40;;;22.70;99.90;;;;;;5072829;28;20048;-82
2022/08/20 10:23:57;;;;;;;3.13;1.52;;;22.40;99.90;;;;;;5056912;28;20048;-83
2022/08/20 10:26:24;;;;;;;6.63;1.45;;;22.10;99.90;;;;;;5038799;28;20080;-83
2022/08/20 10:28:49;;;;;;;3.80;1.40;;;22.20;99.90;;;;;;5038770;28;20546;-81
2022/08/20 10:31:15;;;;;;;8.65;1.40;;;22.20;99.90;;;;;;5037534;28;20041;-84
2022/08/20 10:33:41;;;;;;;5.72;1.38;;;22.70;99.90;;;;;;5037665;28;20033;-80
2022/08/20 10:36:09;;;;;;;5.43;1.58;;;22.80;99.90;;;;;;5048602;28;20510;-83
2022/08/20 10:38:34;;;;;;;2.45;1.20;;;22.80;99.90;;;;;;5055623;28;20029;-81
2022/08/20 10:41:00;;;;;;;4.22;1.77;;;23.20;99.90;;;;;;5036768;28;20065;-82
2022/08/20 10:43:27;;;;;;;3.35;1.38;;;23.30;99.90;;;;;;5053418;28;20037;-83
2022/08/20 10:45:53;;;;;;;4.68;1.30;;;23.60;99.90;;;;;;5025754;28;21105;-81
2022/08/20 10:48:19;;;;;;;6.47;1.90;;;23.80;99.90;;;;;;5020866;28;20048;-83
2022/08/20 10:50:45;;;;;;;3.90;1.40;;;23.90;99.90;;;;;;5037771;28;20110;-85
2022/08/20 10:53:12;;;;;;;5.53;1.50;;;23.70;99.90;;;;;;5020542;28;20461;-82
2022/08/20 10:55:38;;;;;;;4.15;1.60;;;23.40;99.90;;;;;;5038282;28;20123;-84
2022/08/20 10:58:05;;;;;;;3.92;1.55;;;23.00;99.90;;;;;;5057052;28;20041;-83
2022/08/20 11:00:31;;;;;;;5.38;1.60;;;23.10;99.90;;;;;;5040574;28;20040;-81
2022/08/20 11:02:57;;;;;;;5.30;1.50;;;23.50;99.90;;;;;;5056223;28;20123;-81
2022/08/20 11:05:24;;;;;;;4.72;1.45;;;23.40;99.90;;;;;;5039944;28;20124;-82
2022/08/20 11:07:49;;;;;;;4.70;1.40;;;23.30;99.90;;;;;;5070312;28;20441;-82
2022/08/20 11:10:15;;;;;;;5.70;1.40;;;22.90;99.90;;;;;;5056448;28;20075;-81
2022/08/20 11:12:41;;;;;;;6.55;1.70;;;22.60;99.90;;;;;;5039589;28;20032;-84
2022/08/20 11:15:07;;;;;;;5.82;1.50;;;22.40;99.90;;;;;;5039287;28;20033;-81
2022/08/20 11:17:38;;;;;;;3.92;1.55;;;22.40;99.90;;;;;;5037517;28;20079;-83
2022/08/20 11:20:06;;;;;;;4.78;1.52;;;22.40;99.90;;;;;;5055179;28;20067;-84
2022/08/20 11:22:33;;;;;;;4.60;1.80;;;22.30;99.90;;;;;;5056030;28;20099;-85
2022/08/20 11:24:59;;;;;;;6.03;1.65;;;22.30;99.90;;;;;;5052845;28;20045;-86
2022/08/20 11:27:26;;;;;;;8.85;1.70;;;22.40;99.90;;;;;;5036133;28;20067;-81
2022/08/20 11:29:52;;;;;;;4.65;1.50;;;22.60;99.90;;;;;;5044227;28;20039;-82
2022/08/20 11:32:19;;;;;;;4.90;1.60;;;22.70;99.90;;;;;;5041913;28;20060;-83
2022/08/20 11:34:45;;;;;;;4.72;1.33;;;23.00;99.90;;;;;;5055299;28;20094;-85
2022/08/20 11:37:12;;;;;;;5.82;2.08;;;23.40;99.90;;;;;;5038963;28;20044;-82
2022/08/20 11:39:38;;;;;;;6.47;1.70;;;23.50;99.90;;;;;;5055675;28;20048;-81
2022/08/20 11:42:06;;;;;;;4.20;1.70;;;23.00;99.90;;;;;;5055458;28;20044;-82
2022/08/20 11:44:32;;;;;;;4.18;1.83;;;22.80;99.90;;;;;;5055968;28;20072;-82
2022/08/20 11:47:03;;;;;;;6.75;1.83;;;22.60;99.90;;;;;;5039057;28;20120;-83
2022/08/20 11:49:36;;;;;;;4.72;1.65;;;22.70;99.90;;;;;;5070519;28;20593;-82
2022/08/20 11:52:03;;;;;;;5.15;2.00;;;22.70;99.90;;;;;;5038987;28;20043;-82
2022/08/20 11:54:31;;;;;;;6.15;2.67;;;23.50;99.90;;;;;;5035416;28;20060;-82
2022/08/20 11:56:57;;;;;;;3.17;1.42;;;23.70;99.90;;;;;;5042164;28;20049;-82
2022/08/20 11:59:24;;;;;;;4.82;1.63;;;24.10;99.90;;;;;;5052148;28;20044;-82
2022/08/20 12:01:52;;;;;;;6.55;1.70;;;24.30;99.90;;;;;;5078447;28;20407;-83
2022/08/20 12:04:18;;;;;;;4.55;1.60;;;24.70;99.90;;;;;;5037352;28;20052;-82
2022/08/20 12:06:44;;;;;;;5.07;1.95;;;24.70;99.90;;;;;;5051226;28;20032;-83
2022/08/20 12:09:09;;;;;;;4.47;1.73;;;24.50;99.90;;;;;;5054810;28;20036;-83
2022/08/20 12:11:35;;;;;;;4.15;1.75;;;24.40;99.90;;;;;;5038652;28;20038;-85
2022/08/20 12:14:01;;;;;;;5.22;1.77;;;24.60;99.90;;;;;;5038766;28;20047;-81
2022/08/20 12:16:26;;;;;;;6.72;2.10;;;24.60;99.90;;;;;;5037855;28;20468;-81
2022/08/20 12:18:52;;;;;;;5.30;1.70;;;24.70;99.90;;;;;;5055107;28;20068;-84
2022/08/20 12:21:18;;;;;;;4.00;1.60;;;24.80;99.90;;;;;;5035886;28;20036;-82
2022/08/20 12:23:44;;;;;;;6.18;1.58;;;24.50;99.90;;;;;;5054814;28;20102;-83
2022/08/20 12:26:10;;;;;;;3.70;1.42;;;25.00;99.90;;;;;;5052621;28;20083;-84
2022/08/20 12:28:35;;;;;;;4.28;1.50;;;25.10;99.90;;;;;;5054598;28;20047;-84
2022/08/20 12:31:01;;;;;;;6.68;1.77;;;24.90;99.90;;;;;;5047246;28;20037;-82
2022/08/20 12:33:27;;;;;;;4.00;1.92;;;25.30;99.90;;;;;;5018411;28;20056;-85
2022/08/20 12:35:52;;;;;;;4.25;1.67;;;24.70;99.90;;;;;;5018395;28;20470;-81
2022/08/20 12:38:18;;;;;;;5.85;1.77;;;24.60;99.90;;;;;;5026635;28;20040;-83
2022/08/20 12:40:45;;;;;;;3.78;1.60;;;24.40;99.90;;;;;;5034593;28;20041;-83
2022/08/20 12:43:10;;;;;;;3.22;1.30;;;23.90;99.90;;;;;;5051369;28;20044;-82
2022/08/20 12:45:38;;;;;;;3.88;1.58;;;23.60;99.90;;;;;;5051433;28;20114;-82
2022/08/20 12:48:07;;;;;;;3.90;1.60;;;23.60;99.90;;;;;;5017755;28;20049;-81
2022/08/20 12:50:34;;;;;;;5.18;1.70;;;23.60;99.90;;;;;;5045250;28;20040;-82
2022/08/20 12:53:01;;;;;;;4.65;1.73;;;23.40;99.90;;;;;;5050517;28;20125;-84